sensor_id;sensor_type;location;lat;lon;timestamp;pressure;altitude;pressure_sealevel;temperature;humidity
75317;BME280;63913;51.492;10.368;2022-12-24T00:00:55;97210.19;;;8.07;93.86
75317;BME280;63913;51.492;10.368;2022-12-24T00:03:20;97211.88;;;8.04;93.70
75317;BME280;63913;51.492;10.368;2022-12-24T00:05:46;97215.25;;;8.00;93.67
75317;BME280;63913;51.492;10.368;2022-12-24T00:08:11;97221.25;;;8.02;93.79
75317;BME280;63913;51.492;10.368;2022-12-24T00:10:36;97211.84;;;8.01;93.63
75317;BME280;63913;51.492;10.368;2022-12-24T00:13:01;97223.81;;;8.02;93.59
75317;BME280;63913;51.492;10.368;2022-12-24T00:15:27;97220.38;;;8.03;93.57
75317;BME280;63913;51.492;10.368;2022-12-24T00:17:52;97221.25;;;8.02;93.15
75317;BME280;63913;51.492;10.368;2022-12-24T00:20:17;97225.50;;;8.00;93.15
75317;BME280;63913;51.492;10.368;2022-12-24T00:22:42;97226.38;;;8.04;92.72
75317;BME280;63913;51.492;10.368;2022-12-24T00:25:08;97232.34;;;8.04;92.68
75317;BME280;63913;51.492;10.368;2022-12-24T00:27:33;97234.88;;;8.01;92.57
75317;BME280;63913;51.492;10.368;2022-12-24T00:29:58;97237.47;;;8.04;92.40
75317;BME280;63913;51.492;10.368;2022-12-24T00:32:24;97231.50;;;8.05;92.33
75317;BME280;63913;51.492;10.368;2022-12-24T00:34:49;97240.94;;;8.08;92.43
75317;BME280;63913;51.492;10.368;2022-12-24T00:37:14;97250.31;;;8.08;92.22
75317;BME280;63913;51.492;10.368;2022-12-24T00:39:39;97252.84;;;8.06;92.29
75317;BME280;63913;51.492;10.368;2022-12-24T00:42:05;97256.28;;;8.07;91.81
75317;BME280;63913;51.492;10.368;2022-12-24T00:44:30;97253.72;;;8.07;92.00
75317;BME280;63913;51.492;10.368;2022-12-24T00:46:55;97267.34;;;8.05;92.22
75317;BME280;63913;51.492;10.368;2022-12-24T00:49:20;97265.66;;;8.08;91.69
75317;BME280;63913;51.492;10.368;2022-12-24T00:51:46;97263.97;;;8.08;91.88
75317;BME280;63913;51.492;10.368;2022-12-24T00:54:12;97267.38;;;8.07;91.88
75317;BME280;63913;51.492;10.368;2022-12-24T00:56:38;97281.91;;;8.11;91.31
75317;BME280;63913;51.492;10.368;2022-12-24T00:59:03;97281.06;;;8.09;91.83
75317;BME280;63913;51.492;10.368;2022-12-24T01:01:28;97286.16;;;8.08;91.83
75317;BME280;63913;51.492;10.368;2022-12-24T01:03:54;97275.97;;;8.11;91.60
75317;BME280;63913;51.492;10.368;2022-12-24T01:06:39;97286.25;;;8.17;90.73
75317;BME280;63913;51.492;10.368;2022-12-24T01:09:04;97298.22;;;8.16;91.12
75317;BME280;63913;51.492;10.368;2022-12-24T01:11:30;97301.59;;;8.15;90.84
75317;BME280;63913;51.492;10.368;2022-12-24T01:13:56;97304.19;;;8.17;90.73
75317;BME280;63913;51.492;10.368;2022-12-24T01:16:21;97305.03;;;8.16;90.44
75317;BME280;63913;51.492;10.368;2022-12-24T01:18:46;97313.56;;;8.16;90.58
75317;BME280;63913;51.492;10.368;2022-12-24T01:21:12;97307.56;;;8.14;90.89
75317;BME280;63913;51.492;10.368;2022-12-24T01:23:38;97303.28;;;8.13;90.52
75317;BME280;63913;51.492;10.368;2022-12-24T01:26:03;97317.81;;;8.14;90.36
75317;BME280;63913;51.492;10.368;2022-12-24T01:28:30;97325.47;;;8.14;90.88
75317;BME280;63913;51.492;10.368;2022-12-24T01:30:56;97311.81;;;8.14;90.50
75317;BME280;63913;51.492;10.368;2022-12-24T01:33:21;97319.53;;;8.15;90.41
75317;BME280;63913;51.492;10.368;2022-12-24T01:35:46;97319.53;;;8.15;90.33
75317;BME280;63913;51.492;10.368;2022-12-24T01:38:12;97321.25;;;8.16;89.50
75317;BME280;63913;51.492;10.368;2022-12-24T01:40:38;97320.44;;;8.19;89.37
75317;BME280;63913;51.492;10.368;2022-12-24T01:43:23;97316.97;;;8.17;89.21
75317;BME280;63913;51.492;10.368;2022-12-24T01:48:26;97337.50;;;8.18;88.21
75317;BME280;63913;51.492;10.368;2022-12-24T01:51:00;97341.75;;;8.18;88.84
75317;BME280;63913;51.492;10.368;2022-12-24T01:53:27;97339.97;;;8.14;88.83
75317;BME280;63913;51.492;10.368;2022-12-24T01:55:53;97357.00;;;8.10;89.13
75317;BME280;63913;51.492;10.368;2022-12-24T01:58:20;97352.75;;;8.11;88.35
75317;BME280;63913;51.492;10.368;2022-12-24T02:00:48;97359.59;;;8.13;88.26
75317;BME280;63913;51.492;10.368;2022-12-24T02:03:13;97358.69;;;8.11;88.07
75317;BME280;63913;51.492;10.368;2022-12-24T02:05:53;97364.69;;;8.12;87.96
75317;BME280;63913;51.492;10.368;2022-12-24T02:08:21;97370.66;;;8.09;88.08
75317;BME280;63913;51.492;10.368;2022-12-24T02:10:47;97373.19;;;8.08;88.31
75317;BME280;63913;51.492;10.368;2022-12-24T02:13:14;97376.53;;;8.05;88.50
75317;BME280;63913;51.492;10.368;2022-12-24T02:16:03;97380.81;;;8.04;88.35
75317;BME280;63913;51.492;10.368;2022-12-24T02:32:31;97406.44;;;8.06;86.40
75317;BME280;63913;51.492;10.368;2022-12-24T02:35:07;97414.09;;;8.06;85.99
75317;BME280;63913;51.492;10.368;2022-12-24T02:37:40;97417.47;;;8.03;86.17
75317;BME280;63913;51.492;10.368;2022-12-24T02:40:11;97420.03;;;8.03;85.75
75317;BME280;63913;51.492;10.368;2022-12-24T02:42:42;97430.28;;;8.03;85.89
75317;BME280;63913;51.492;10.368;2022-12-24T02:45:21;97427.72;;;8.03;85.67
75317;BME280;63913;51.492;10.368;2022-12-24T02:47:47;97423.50;;;8.05;84.81
75317;BME280;63913;51.492;10.368;2022-12-24T02:50:15;97430.38;;;8.10;84.67
75317;BME280;63913;51.492;10.368;2022-12-24T02:52:43;97433.81;;;8.10;84.29
75317;BME280;63913;51.492;10.368;2022-12-24T02:58:11;97439.75;;;8.09;84.48
75317;BME280;63913;51.492;10.368;2022-12-24T03:00:54;97438.94;;;8.12;84.40
75317;BME280;63913;51.492;10.368;2022-12-24T03:06:22;97465.31;;;8.06;84.76
75317;BME280;63913;51.492;10.368;2022-12-24T03:09:12;97456.75;;;8.02;84.62
75317;BME280;63913;51.492;10.368;2022-12-24T03:11:45;97469.50;;;8.01;84.69
75317;BME280;63913;51.492;10.368;2022-12-24T03:14:13;97478.03;;;8.00;84.93
75317;BME280;63913;51.492;10.368;2022-12-24T03:16:41;97471.13;;;7.96;85.25
75317;BME280;63913;51.492;10.368;2022-12-24T03:19:06;97471.94;;;7.95;85.57
75317;BME280;63913;51.492;10.368;2022-12-24T03:21:37;97484.75;;;7.93;85.71
75317;BME280;63913;51.492;10.368;2022-12-24T03:24:04;97485.47;;;7.88;85.96
75317;BME280;63913;51.492;10.368;2022-12-24T03:26:31;97487.19;;;7.87;86.41
75317;BME280;63913;51.492;10.368;2022-12-24T03:28:57;97491.44;;;7.85;86.00
75317;BME280;63913;51.492;10.368;2022-12-24T03:31:22;97492.28;;;7.87;85.91
75317;BME280;63913;51.492;10.368;2022-12-24T03:33:48;97497.41;;;7.86;86.09
75317;BME280;63913;51.492;10.368;2022-12-24T03:36:13;97505.97;;;7.86;86.17
75317;BME280;63913;51.492;10.368;2022-12-24T03:38:39;97504.22;;;7.85;86.17
75317;BME280;63913;51.492;10.368;2022-12-24T03:41:05;97505.91;;;7.83;86.65
75317;BME280;63913;51.492;10.368;2022-12-24T03:43:30;97510.97;;;7.82;86.54
75317;BME280;63913;51.492;10.368;2022-12-24T03:45:56;97507.66;;;7.86;85.41
75317;BME280;63913;51.492;10.368;2022-12-24T03:48:21;97508.44;;;7.83;85.69
75317;BME280;63913;51.492;10.368;2022-12-24T03:50:46;97530.66;;;7.84;84.71
75317;BME280;63913;51.492;10.368;2022-12-24T03:53:11;97517.03;;;7.87;83.90
75317;BME280;63913;51.492;10.368;2022-12-24T03:55:37;97529.03;;;7.89;83.42
75317;BME280;63913;51.492;10.368;2022-12-24T03:58:03;97527.25;;;7.87;82.58
75317;BME280;63913;51.492;10.368;2022-12-24T04:00:29;97526.41;;;7.85;81.87
75317;BME280;63913;51.492;10.368;2022-12-24T04:02:54;97528.13;;;7.86;82.03
75317;BME280;63913;51.492;10.368;2022-12-24T04:05:20;97550.25;;;7.84;81.25
75317;BME280;63913;51.492;10.368;2022-12-24T04:07:45;97543.44;;;7.84;80.99
75317;BME280;63913;51.492;10.368;2022-12-24T04:10:12;97541.78;;;7.86;80.66
75317;BME280;63913;51.492;10.368;2022-12-24T04:12:37;97550.25;;;7.84;80.70
75317;BME280;63913;51.492;10.368;2022-12-24T04:15:03;97546.84;;;7.83;80.26
75317;BME280;63913;51.492;10.368;2022-12-24T04:17:29;97560.50;;;7.84;80.02
75317;BME280;63913;51.492;10.368;2022-12-24T04:19:54;97543.47;;;7.86;78.92
75317;BME280;63913;51.492;10.368;2022-12-24T04:22:20;97552.81;;;7.84;79.70
75317;BME280;63913;51.492;10.368;2022-12-24T04:24:45;97552.03;;;7.86;79.05
75317;BME280;63913;51.492;10.368;2022-12-24T04:27:13;97568.25;;;7.88;78.61
75317;BME280;63913;51.492;10.368;2022-12-24T04:29:38;97561.50;;;7.92;78.79
75317;BME280;63913;51.492;10.368;2022-12-24T04:32:03;97581.06;;;7.90;79.09
75317;BME280;63913;51.492;10.368;2022-12-24T04:34:29;97567.44;;;7.91;78.90
75317;BME280;63913;51.492;10.368;2022-12-24T04:36:54;97560.53;;;7.85;79.93
75317;BME280;63913;51.492;10.368;2022-12-24T04:39:19;97574.16;;;7.84;79.40
75317;BME280;63913;51.492;10.368;2022-12-24T04:41:44;97557.91;;;7.82;79.87
75317;BME280;63913;51.492;10.368;2022-12-24T04:44:10;97573.31;;;7.85;79.88
75317;BME280;63913;51.492;10.368;2022-12-24T04:46:35;97574.13;;;7.83;80.06
75317;BME280;63913;51.492;10.368;2022-12-24T04:49:00;97579.22;;;7.81;80.24
75317;BME280;63913;51.492;10.368;2022-12-24T04:51:27;97580.91;;;7.81;80.06
75317;BME280;63913;51.492;10.368;2022-12-24T04:53:52;97586.97;;;7.86;79.31
75317;BME280;63913;51.492;10.368;2022-12-24T04:56:21;97581.00;;;7.85;79.50
75317;BME280;63913;51.492;10.368;2022-12-24T04:58:47;97587.78;;;7.83;78.50
75317;BME280;63913;51.492;10.368;2022-12-24T05:01:16;97591.25;;;7.85;77.57
75317;BME280;63913;51.492;10.368;2022-12-24T05:03:42;97600.63;;;7.86;77.69
75317;BME280;63913;51.492;10.368;2022-12-24T05:06:12;97598.00;;;7.83;78.05
75317;BME280;63913;51.492;10.368;2022-12-24T05:08:38;97598.78;;;7.79;77.93
75317;BME280;63913;51.492;10.368;2022-12-24T05:11:04;97604.78;;;7.81;77.70
75317;BME280;63913;51.492;10.368;2022-12-24T05:13:29;97608.06;;;7.74;77.57
75317;BME280;63913;51.492;10.368;2022-12-24T05:15:55;97624.25;;;7.73;77.01
75317;BME280;63913;51.492;10.368;2022-12-24T05:18:21;97624.28;;;7.75;76.53
75317;BME280;63913;51.492;10.368;2022-12-24T05:20:47;97636.28;;;7.79;76.18
75317;BME280;63913;51.492;10.368;2022-12-24T05:23:21;97629.44;;;7.76;76.84
75317;BME280;63913;51.492;10.368;2022-12-24T05:26:27;97635.34;;;7.74;76.28
75317;BME280;63913;51.492;10.368;2022-12-24T05:28:54;97630.28;;;7.75;75.70
75317;BME280;63913;51.492;10.368;2022-12-24T05:31:22;97639.72;;;7.78;75.84
75317;BME280;63913;51.492;10.368;2022-12-24T05:33:48;97634.53;;;7.75;75.96
75317;BME280;63913;51.492;10.368;2022-12-24T05:36:13;97646.41;;;7.73;75.95
75317;BME280;63913;51.492;10.368;2022-12-24T05:38:39;97643.81;;;7.70;75.73
75317;BME280;63913;51.492;10.368;2022-12-24T05:41:04;97654.06;;;7.71;75.74
75317;BME280;63913;51.492;10.368;2022-12-24T05:43:30;97656.63;;;7.71;75.65
75317;BME280;63913;51.492;10.368;2022-12-24T05:46:00;97645.56;;;7.72;75.18
75317;BME280;63913;51.492;10.368;2022-12-24T05:48:26;97650.63;;;7.69;75.71
75317;BME280;63913;51.492;10.368;2022-12-24T05:50:52;97659.09;;;7.66;75.55
75317;BME280;63913;51.492;10.368;2022-12-24T05:53:17;97655.72;;;7.68;75.33
75317;BME280;63913;51.492;10.368;2022-12-24T05:55:42;97662.41;;;7.62;75.54
75317;BME280;63913;51.492;10.368;2022-12-24T05:58:08;97671.72;;;7.59;76.13
75317;BME280;63913;51.492;10.368;2022-12-24T06:00:33;97661.50;;;7.59;76.12
75317;BME280;63913;51.492;10.368;2022-12-24T06:02:58;97660.56;;;7.55;75.90
75317;BME280;63913;51.492;10.368;2022-12-24T06:05:23;97669.84;;;7.50;76.12
75317;BME280;63913;51.492;10.368;2022-12-24T06:07:49;97682.59;;;7.49;76.42
75317;BME280;63913;51.492;10.368;2022-12-24T06:10:14;97684.28;;;7.48;76.38
75317;BME280;63913;51.492;10.368;2022-12-24T06:12:39;97689.38;;;7.47;76.81
75317;BME280;63913;51.492;10.368;2022-12-24T06:15:05;97685.94;;;7.45;76.98
75317;BME280;63913;51.492;10.368;2022-12-24T06:17:31;97690.94;;;7.40;77.36
75317;BME280;63913;51.492;10.368;2022-12-24T06:19:56;97691.81;;;7.41;77.06
75317;BME280;63913;51.492;10.368;2022-12-24T06:22:21;97690.91;;;7.39;77.40
75317;BME280;63913;51.492;10.368;2022-12-24T06:24:46;97700.25;;;7.37;77.32
75317;BME280;63913;51.492;10.368;2022-12-24T06:27:11;97708.63;;;7.31;77.76
75317;BME280;63913;51.492;10.368;2022-12-24T06:29:37;97711.97;;;7.27;78.05
75317;BME280;63913;51.492;10.368;2022-12-24T06:32:02;97706.00;;;7.26;77.67
75317;BME280;63913;51.492;10.368;2022-12-24T06:34:27;97712.84;;;7.27;77.67
75317;BME280;63913;51.492;10.368;2022-12-24T06:36:53;97710.25;;;7.26;77.26
75317;BME280;63913;51.492;10.368;2022-12-24T06:39:18;97716.19;;;7.25;77.62
75317;BME280;63913;51.492;10.368;2022-12-24T06:41:43;97719.56;;;7.24;77.48
75317;BME280;63913;51.492;10.368;2022-12-24T06:44:09;97708.53;;;7.26;77.55
75317;BME280;63913;51.492;10.368;2022-12-24T06:46:34;97714.56;;;7.28;77.03
75317;BME280;63913;51.492;10.368;2022-12-24T06:48:59;97720.53;;;7.29;77.36
75317;BME280;63913;51.492;10.368;2022-12-24T06:51:25;97730.03;;;7.35;77.18
75317;BME280;63913;51.492;10.368;2022-12-24T06:53:50;97729.91;;;7.30;77.16
75317;BME280;63913;51.492;10.368;2022-12-24T06:56:16;97737.59;;;7.30;76.73
75317;BME280;63913;51.492;10.368;2022-12-24T06:58:41;97745.28;;;7.32;77.12
75317;BME280;63913;51.492;10.368;2022-12-24T07:01:09;97745.28;;;7.32;76.69
75317;BME280;63913;51.492;10.368;2022-12-24T07:03:35;97746.28;;;7.37;76.71
75317;BME280;63913;51.492;10.368;2022-12-24T07:06:01;97753.13;;;7.39;76.69
75317;BME280;63913;51.492;10.368;2022-12-24T07:08:26;97753.09;;;7.36;77.44
75317;BME280;63913;51.492;10.368;2022-12-24T07:10:52;97757.38;;;7.39;77.34
75317;BME280;63913;51.492;10.368;2022-12-24T07:13:18;97759.06;;;7.37;77.52
75317;BME280;63913;51.492;10.368;2022-12-24T07:15:43;97758.22;;;7.36;77.19
75317;BME280;63913;51.492;10.368;2022-12-24T07:18:09;97765.06;;;7.39;77.36
75317;BME280;63913;51.492;10.368;2022-12-24T07:20:34;97759.94;;;7.37;78.13
75317;BME280;63913;51.492;10.368;2022-12-24T07:22:59;97771.78;;;7.34;77.35
75317;BME280;63913;51.492;10.368;2022-12-24T07:25:25;97770.09;;;7.34;78.03
75317;BME280;63913;51.492;10.368;2022-12-24T07:27:50;97775.13;;;7.31;78.30
75317;BME280;63913;51.492;10.368;2022-12-24T07:30:15;97781.91;;;7.31;78.21
75317;BME280;63913;51.492;10.368;2022-12-24T07:32:41;97782.78;;;7.31;78.34
75317;BME280;63913;51.492;10.368;2022-12-24T07:35:06;97787.94;;;7.33;78.94
75317;BME280;63913;51.492;10.368;2022-12-24T07:37:32;97793.06;;;7.33;78.90
75317;BME280;63913;51.492;10.368;2022-12-24T07:39:57;97801.50;;;7.30;79.99
75317;BME280;63913;51.492;10.368;2022-12-24T07:42:23;97802.38;;;7.31;80.06
75317;BME280;63913;51.492;10.368;2022-12-24T07:44:48;97810.03;;;7.29;80.69
75317;BME280;63913;51.492;10.368;2022-12-24T07:47:13;97798.06;;;7.28;80.95
75317;BME280;63913;51.492;10.368;2022-12-24T07:49:39;97803.19;;;7.28;81.13
75317;BME280;63913;51.492;10.368;2022-12-24T07:52:04;97813.41;;;7.28;81.33
75317;BME280;63913;51.492;10.368;2022-12-24T07:54:29;97818.41;;;7.23;82.10
75317;BME280;63913;51.492;10.368;2022-12-24T07:56:55;97824.34;;;7.22;82.06
75317;BME280;63913;51.492;10.368;2022-12-24T07:59:20;97825.19;;;7.23;82.17
75317;BME280;63913;51.492;10.368;2022-12-24T08:01:45;97834.59;;;7.24;82.72
75317;BME280;63913;51.492;10.368;2022-12-24T08:04:11;97840.63;;;7.26;82.82
75317;BME280;63913;51.492;10.368;2022-12-24T08:06:36;97848.97;;;7.19;83.10
75317;BME280;63913;51.492;10.368;2022-12-24T08:09:02;97854.09;;;7.19;83.51
75317;BME280;63913;51.492;10.368;2022-12-24T08:11:27;97856.59;;;7.17;83.53
75317;BME280;63913;51.492;10.368;2022-12-24T08:13:52;97853.13;;;7.15;83.31
75317;BME280;63913;51.492;10.368;2022-12-24T08:16:18;97853.19;;;7.17;83.59
75317;BME280;63913;51.492;10.368;2022-12-24T08:18:43;97852.28;;;7.15;84.03
75317;BME280;63913;51.492;10.368;2022-12-24T08:21:08;97846.28;;;7.13;83.94
75317;BME280;63913;51.492;10.368;2022-12-24T08:23:35;97842.88;;;7.14;83.75
75317;BME280;63913;51.492;10.368;2022-12-24T08:26:06;97841.22;;;7.16;83.42
75317;BME280;63913;51.492;10.368;2022-12-24T08:28:32;97852.41;;;7.19;83.44
75317;BME280;63913;51.492;10.368;2022-12-24T08:30:58;97839.81;;;7.27;83.04
75317;BME280;63913;51.492;10.368;2022-12-24T08:33:23;97844.97;;;7.28;83.04
75317;BME280;63913;51.492;10.368;2022-12-24T08:35:52;97858.72;;;7.34;82.31
75317;BME280;63913;51.492;10.368;2022-12-24T08:38:18;97865.50;;;7.33;82.59
75317;BME280;63913;51.492;10.368;2022-12-24T08:40:44;97860.50;;;7.36;82.28
75317;BME280;63913;51.492;10.368;2022-12-24T08:43:13;97859.56;;;7.34;82.88
75317;BME280;63913;51.492;10.368;2022-12-24T08:45:38;97863.03;;;7.36;83.01
75317;BME280;63913;51.492;10.368;2022-12-24T08:48:04;97872.28;;;7.31;83.69
75317;BME280;63913;51.492;10.368;2022-12-24T08:50:29;97867.16;;;7.30;84.46
75317;BME280;63913;51.492;10.368;2022-12-24T08:52:55;97868.84;;;7.31;84.89
75317;BME280;63913;51.492;10.368;2022-12-24T08:55:20;97867.97;;;7.28;85.47
75317;BME280;63913;51.492;10.368;2022-12-24T08:57:45;97885.81;;;7.27;85.57
75317;BME280;63913;51.492;10.368;2022-12-24T09:00:11;97888.38;;;7.27;85.98
75317;BME280;63913;51.492;10.368;2022-12-24T09:02:37;97899.44;;;7.26;85.98
75317;BME280;63913;51.492;10.368;2022-12-24T09:05:02;97900.31;;;7.26;86.19
75317;BME280;63913;51.492;10.368;2022-12-24T09:07:28;97904.53;;;7.26;85.88
75317;BME280;63913;51.492;10.368;2022-12-24T09:09:53;97916.56;;;7.30;85.97
75317;BME280;63913;51.492;10.368;2022-12-24T09:12:18;97919.13;;;7.28;86.03
75317;BME280;63913;51.492;10.368;2022-12-24T09:14:43;97924.28;;;7.32;86.25
75317;BME280;63913;51.492;10.368;2022-12-24T09:17:09;97921.78;;;7.33;85.89
75317;BME280;63913;51.492;10.368;2022-12-24T09:19:34;97923.56;;;7.36;85.73
75317;BME280;63913;51.492;10.368;2022-12-24T09:21:59;97928.72;;;7.39;85.86
75317;BME280;63913;51.492;10.368;2022-12-24T09:24:24;97936.44;;;7.40;85.86
75317;BME280;63913;51.492;10.368;2022-12-24T09:26:50;97931.41;;;7.43;85.83
75317;BME280;63913;51.492;10.368;2022-12-24T09:29:15;97933.97;;;7.43;86.17
75317;BME280;63913;51.492;10.368;2022-12-24T09:31:41;97934.03;;;7.46;85.91
75317;BME280;63913;51.492;10.368;2022-12-24T09:34:06;97939.28;;;7.51;86.14
75317;BME280;63913;51.492;10.368;2022-12-24T09:36:33;97929.97;;;7.54;85.74
75317;BME280;63913;51.492;10.368;2022-12-24T09:38:58;97941.94;;;7.55;86.10
75317;BME280;63913;51.492;10.368;2022-12-24T09:41:40;97941.16;;;7.58;86.26
75317;BME280;63913;51.492;10.368;2022-12-24T09:44:22;97942.22;;;7.66;86.51
75317;BME280;63913;51.492;10.368;2022-12-24T09:46:53;97947.38;;;7.68;86.08
75317;BME280;63913;51.492;10.368;2022-12-24T09:49:22;97950.06;;;7.74;85.90
75317;BME280;63913;51.492;10.368;2022-12-24T09:51:56;97957.94;;;7.81;85.54
75317;BME280;63913;51.492;10.368;2022-12-24T09:54:29;97954.63;;;7.85;85.61
75317;BME280;63913;51.492;10.368;2022-12-24T09:57:00;97953.81;;;7.88;85.38
75317;BME280;63913;51.492;10.368;2022-12-24T09:59:41;97958.25;;;7.95;84.87
75317;BME280;63913;51.492;10.368;2022-12-24T10:02:14;97954.94;;;7.99;84.58
75317;BME280;63913;51.492;10.368;2022-12-24T10:04:42;97960.94;;;7.99;85.00
75317;BME280;63913;51.492;10.368;2022-12-24T10:07:36;97956.63;;;7.98;84.59
75317;BME280;63913;51.492;10.368;2022-12-24T10:23:23;97977.19;;;8.01;83.21
75317;BME280;63913;51.492;10.368;2022-12-24T10:28:57;97963.59;;;8.04;83.64
75317;BME280;63913;51.492;10.368;2022-12-24T10:31:26;97973.91;;;8.07;83.18
75317;BME280;63913;51.492;10.368;2022-12-24T10:34:06;97977.44;;;8.11;82.95
75317;BME280;63913;51.492;10.368;2022-12-24T10:36:37;97980.00;;;8.12;82.37
75317;BME280;63913;51.492;10.368;2022-12-24T10:39:02;97973.25;;;8.16;82.79
75317;BME280;63913;51.492;10.368;2022-12-24T10:41:29;97982.63;;;8.15;82.67
75317;BME280;63913;51.492;10.368;2022-12-24T10:43:55;97985.25;;;8.17;83.17
75317;BME280;63913;51.492;10.368;2022-12-24T10:46:22;97988.72;;;8.19;82.74
75317;BME280;63913;51.492;10.368;2022-12-24T10:48:59;97991.41;;;8.25;82.78
75317;BME280;63913;51.492;10.368;2022-12-24T10:51:52;97989.63;;;8.22;82.95
75317;BME280;63913;51.492;10.368;2022-12-24T10:54:25;97987.94;;;8.23;83.02
75317;BME280;63913;51.492;10.368;2022-12-24T10:56:55;97981.97;;;8.24;82.62
75317;BME280;63913;51.492;10.368;2022-12-24T10:59:25;97993.16;;;8.27;82.39
75317;BME280;63913;51.492;10.368;2022-12-24T11:01:52;97989.75;;;8.27;82.81
75317;BME280;63913;51.492;10.368;2022-12-24T11:04:29;97988.81;;;8.23;83.00
75317;BME280;63913;51.492;10.368;2022-12-24T11:07:00;97992.19;;;8.22;82.41
75317;BME280;63913;51.492;10.368;2022-12-24T11:10:12;97996.56;;;8.26;82.86
75317;BME280;63913;51.492;10.368;2022-12-24T11:12:21;97999.94;;;8.25;83.07
75317;BME280;63913;51.492;10.368;2022-12-24T11:14:49;98002.50;;;8.25;82.49
75317;BME280;63913;51.492;10.368;2022-12-24T11:17:23;97999.13;;;8.28;81.48
75317;BME280;63913;51.492;10.368;2022-12-24T11:19:49;98000.91;;;8.30;81.65
75317;BME280;63913;51.492;10.368;2022-12-24T11:22:26;97997.56;;;8.31;81.65
75317;BME280;63913;51.492;10.368;2022-12-24T11:27:38;98004.47;;;8.35;81.18
75317;BME280;63913;51.492;10.368;2022-12-24T11:32:49;98010.63;;;8.43;79.97
75317;BME280;63913;51.492;10.368;2022-12-24T11:37:42;97993.50;;;8.41;80.78
75317;BME280;63913;51.492;10.368;2022-12-24T11:40:18;97997.78;;;8.40;80.82
75317;BME280;63913;51.492;10.368;2022-12-24T11:42:45;98003.69;;;8.38;80.96
75317;BME280;63913;51.492;10.368;2022-12-24T11:45:25;98013.13;;;8.40;80.89
75317;BME280;63913;51.492;10.368;2022-12-24T11:47:52;98005.47;;;8.40;81.11
75317;BME280;63913;51.492;10.368;2022-12-24T11:50:31;98008.88;;;8.41;80.75
75317;BME280;63913;51.492;10.368;2022-12-24T11:55:35;97999.50;;;8.41;80.33
75317;BME280;63913;51.492;10.368;2022-12-24T11:58:15;98008.84;;;8.39;81.10
75317;BME280;63913;51.492;10.368;2022-12-24T12:00:43;98002.84;;;8.39;80.50
75317;BME280;63913;51.492;10.368;2022-12-24T12:03:22;98014.75;;;8.37;80.90
75317;BME280;63913;51.492;10.368;2022-12-24T12:05:53;98010.44;;;8.34;82.02
75317;BME280;63913;51.492;10.368;2022-12-24T12:08:20;98028.28;;;8.31;82.79
75317;BME280;63913;51.492;10.368;2022-12-24T12:10:48;98011.94;;;8.26;83.78
75317;BME280;63913;51.492;10.368;2022-12-24T12:13:18;98014.31;;;8.20;83.75
75317;BME280;63913;51.492;10.368;2022-12-24T12:18:38;98014.19;;;8.14;84.24
75317;BME280;63913;51.492;10.368;2022-12-24T12:21:34;98017.56;;;8.13;84.62
75317;BME280;63913;51.492;10.368;2022-12-24T12:24:05;98023.59;;;8.15;84.42
75317;BME280;63913;51.492;10.368;2022-12-24T12:26:37;98020.19;;;8.15;84.45
75317;BME280;63913;51.492;10.368;2022-12-24T12:29:26;98029.63;;;8.17;84.19
75317;BME280;63913;51.492;10.368;2022-12-24T12:32:03;98029.00;;;8.26;84.09
75317;BME280;63913;51.492;10.368;2022-12-24T12:37:55;98025.78;;;8.33;83.47
75317;BME280;63913;51.492;10.368;2022-12-24T12:40:29;98024.22;;;8.39;82.61
75317;BME280;63913;51.492;10.368;2022-12-24T12:43:31;98020.03;;;8.43;82.04
75317;BME280;63913;51.492;10.368;2022-12-24T12:46:24;98035.53;;;8.49;80.49
75317;BME280;63913;51.492;10.368;2022-12-24T12:54:24;98021.00;;;8.48;80.37
75317;BME280;63913;51.492;10.368;2022-12-24T12:56:55;98026.88;;;8.44;79.59
75317;BME280;63913;51.492;10.368;2022-12-24T13:07:27;98031.03;;;8.39;80.11
75317;BME280;63913;51.492;10.368;2022-12-24T13:15:40;98055.72;;;8.37;80.08
75317;BME280;63913;51.492;10.368;2022-12-24T13:20:57;98066.16;;;8.45;79.20
75317;BME280;63913;51.492;10.368;2022-12-24T13:23:23;98067.91;;;8.46;79.53
75317;BME280;63913;51.492;10.368;2022-12-24T13:25:52;98077.34;;;8.48;79.80
75317;BME280;63913;51.492;10.368;2022-12-24T13:30:44;98085.34;;;8.62;78.76
75317;BME280;63913;51.492;10.368;2022-12-24T13:36:17;98102.38;;;8.60;79.07
75317;BME280;63913;51.492;10.368;2022-12-24T13:38:55;98105.03;;;8.63;78.88
75317;BME280;63913;51.492;10.368;2022-12-24T13:49:37;98122.97;;;8.63;78.64
75317;BME280;63913;51.492;10.368;2022-12-24T13:52:14;98123.84;;;8.63;78.78
75317;BME280;63913;51.492;10.368;2022-12-24T13:54:44;98122.09;;;8.62;78.79
75317;BME280;63913;51.492;10.368;2022-12-24T13:57:40;98117.81;;;8.61;77.90
75317;BME280;63913;51.492;10.368;2022-12-24T14:03:06;98127.19;;;8.61;79.00
75317;BME280;63913;51.492;10.368;2022-12-24T14:05:44;98127.09;;;8.56;78.82
75317;BME280;63913;51.492;10.368;2022-12-24T14:08:24;98125.41;;;8.57;79.14
75317;BME280;63913;51.492;10.368;2022-12-24T14:11:12;98133.84;;;8.54;79.37
75317;BME280;63913;51.492;10.368;2022-12-24T14:16:26;98133.00;;;8.54;79.85
75317;BME280;63913;51.492;10.368;2022-12-24T14:19:14;98143.38;;;8.58;79.38
75317;BME280;63913;51.492;10.368;2022-12-24T14:24:50;98139.31;;;8.68;79.46
75317;BME280;63913;51.492;10.368;2022-12-24T14:27:20;98146.16;;;8.69;79.31
75317;BME280;63913;51.492;10.368;2022-12-24T14:29:59;98140.25;;;8.71;79.23
75317;BME280;63913;51.492;10.368;2022-12-24T14:32:32;98141.13;;;8.72;79.23
75317;BME280;63913;51.492;10.368;2022-12-24T14:35:34;98150.44;;;8.68;78.92
75317;BME280;63913;51.492;10.368;2022-12-24T14:38:02;98140.94;;;8.64;79.02
75317;BME280;63913;51.492;10.368;2022-12-24T14:40:30;98152.81;;;8.61;79.01
75317;BME280;63913;51.492;10.368;2022-12-24T14:45:42;98158.81;;;8.61;78.88
75317;BME280;63913;51.492;10.368;2022-12-24T14:48:19;98163.00;;;8.58;78.95
75317;BME280;63913;51.492;10.368;2022-12-24T14:56:18;98165.38;;;8.52;79.21